sensor_id;sensor_type;location;lat;lon;timestamp;P1;durP1;ratioP1;P2;durP2;ratioP2
7426;SDS011;3755;59.316;18.092;2023-02-28T00:00:45;0.93;;;0.60;;
7426;SDS011;3755;59.316;18.092;2023-02-28T00:03:14;1.13;;;0.90;;
7426;SDS011;3755;59.316;18.092;2023-02-28T00:05:42;1.80;;;0.80;;
7426;SDS011;3755;59.316;18.092;2023-02-28T00:08:12;0.70;;;0.70;;
7426;SDS011;3755;59.316;18.092;2023-02-28T00:10:41;1.27;;;0.80;;
7426;SDS011;3755;59.316;18.092;2023-02-28T00:13:11;0.80;;;0.80;;
7426;SDS011;3755;59.316;18.092;2023-02-28T00:15:42;1.67;;;0.80;;
7426;SDS011;3755;59.316;18.092;2023-02-28T00:18:10;0.70;;;0.70;;
7426;SDS011;3755;59.316;18.092;2023-02-28T00:20:38;0.97;;;0.80;;
7426;SDS011;3755;59.316;18.092;2023-02-28T00:23:07;0.93;;;0.80;;
7426;SDS011;3755;59.316;18.092;2023-02-28T00:25:38;1.53;;;1.00;;
7426;SDS011;3755;59.316;18.092;2023-02-28T00:28:06;1.43;;;0.80;;
7426;SDS011;3755;59.316;18.092;2023-02-28T00:30:36;1.23;;;0.67;;
7426;SDS011;3755;59.316;18.092;2023-02-28T00:33:06;1.33;;;0.70;;
7426;SDS011;3755;59.316;18.092;2023-02-28T00:35:34;1.07;;;0.83;;
7426;SDS011;3755;59.316;18.092;2023-02-28T00:38:01;2.60;;;0.90;;
7426;SDS011;3755;59.316;18.092;2023-02-28T00:40:32;0.70;;;0.60;;
7426;SDS011;3755;59.316;18.092;2023-02-28T00:43:01;0.80;;;0.70;;
7426;SDS011;3755;59.316;18.092;2023-02-28T00:45:30;0.70;;;0.60;;
7426;SDS011;3755;59.316;18.092;2023-02-28T00:47:59;1.23;;;0.60;;
7426;SDS011;3755;59.316;18.092;2023-02-28T00:50:26;0.70;;;0.50;;
7426;SDS011;3755;59.316;18.092;2023-02-28T00:52:55;1.50;;;0.93;;
7426;SDS011;3755;59.316;18.092;2023-02-28T00:55:24;0.90;;;0.70;;
7426;SDS011;3755;59.316;18.092;2023-02-28T00:57:52;2.33;;;0.77;;
7426;SDS011;3755;59.316;18.092;2023-02-28T01:00:22;0.97;;;0.73;;
7426;SDS011;3755;59.316;18.092;2023-02-28T01:02:49;1.40;;;0.70;;
7426;SDS011;3755;59.316;18.092;2023-02-28T01:05:17;0.87;;;0.63;;
7426;SDS011;3755;59.316;18.092;2023-02-28T01:07:44;1.03;;;0.70;;
7426;SDS011;3755;59.316;18.092;2023-02-28T01:10:11;2.87;;;0.60;;
7426;SDS011;3755;59.316;18.092;2023-02-28T01:12:39;1.50;;;1.00;;
7426;SDS011;3755;59.316;18.092;2023-02-28T01:15:09;0.97;;;0.80;;
7426;SDS011;3755;59.316;18.092;2023-02-28T01:17:39;1.53;;;0.87;;
7426;SDS011;3755;59.316;18.092;2023-02-28T01:20:08;1.47;;;0.70;;
7426;SDS011;3755;59.316;18.092;2023-02-28T01:22:40;0.77;;;0.63;;
7426;SDS011;3755;59.316;18.092;2023-02-28T01:25:08;0.93;;;0.80;;
7426;SDS011;3755;59.316;18.092;2023-02-28T01:27:35;1.47;;;0.73;;
7426;SDS011;3755;59.316;18.092;2023-02-28T01:30:05;0.90;;;0.70;;
7426;SDS011;3755;59.316;18.092;2023-02-28T01:32:35;1.73;;;1.33;;
7426;SDS011;3755;59.316;18.092;2023-02-28T01:35:13;2.03;;;0.70;;
7426;SDS011;3755;59.316;18.092;2023-02-28T01:37:57;1.27;;;0.83;;
7426;SDS011;3755;59.316;18.092;2023-02-28T01:40:29;0.87;;;0.60;;
7426;SDS011;3755;59.316;18.092;2023-02-28T01:43:00;0.60;;;0.60;;
7426;SDS011;3755;59.316;18.092;2023-02-28T01:45:30;1.03;;;0.70;;
7426;SDS011;3755;59.316;18.092;2023-02-28T01:48:02;1.30;;;0.83;;
7426;SDS011;3755;59.316;18.092;2023-02-28T01:50:34;0.97;;;0.60;;
7426;SDS011;3755;59.316;18.092;2023-02-28T01:53:07;0.60;;;0.60;;
7426;SDS011;3755;59.316;18.092;2023-02-28T01:55:40;1.60;;;0.70;;
7426;SDS011;3755;59.316;18.092;2023-02-28T01:58:25;0.77;;;0.63;;
7426;SDS011;3755;59.316;18.092;2023-02-28T02:00:55;0.87;;;0.60;;
7426;SDS011;3755;59.316;18.092;2023-02-28T02:03:25;0.73;;;0.70;;
7426;SDS011;3755;59.316;18.092;2023-02-28T02:05:54;1.30;;;0.67;;
7426;SDS011;3755;59.316;18.092;2023-02-28T02:08:22;0.63;;;0.53;;
7426;SDS011;3755;59.316;18.092;2023-02-28T02:10:52;0.80;;;0.60;;
7426;SDS011;3755;59.316;18.092;2023-02-28T02:13:29;1.00;;;0.60;;
7426;SDS011;3755;59.316;18.092;2023-02-28T02:16:08;0.93;;;0.67;;
7426;SDS011;3755;59.316;18.092;2023-02-28T02:18:47;1.10;;;0.80;;
7426;SDS011;3755;59.316;18.092;2023-02-28T02:21:33;0.87;;;0.63;;
7426;SDS011;3755;59.316;18.092;2023-02-28T02:24:33;1.27;;;0.63;;
7426;SDS011;3755;59.316;18.092;2023-02-28T02:30:58;0.87;;;0.70;;
7426;SDS011;3755;59.316;18.092;2023-02-28T02:36:58;0.57;;;0.57;;
7426;SDS011;3755;59.316;18.092;2023-02-28T02:39:38;0.73;;;0.60;;
7426;SDS011;3755;59.316;18.092;2023-02-28T02:42:16;0.97;;;0.60;;
7426;SDS011;3755;59.316;18.092;2023-02-28T02:44:51;0.57;;;0.50;;
7426;SDS011;3755;59.316;18.092;2023-02-28T02:47:26;0.47;;;0.47;;
7426;SDS011;3755;59.316;18.092;2023-02-28T02:49:59;0.40;;;0.40;;
7426;SDS011;3755;59.316;18.092;2023-02-28T02:52:32;0.93;;;0.60;;
7426;SDS011;3755;59.316;18.092;2023-02-28T02:55:05;0.80;;;0.50;;
7426;SDS011;3755;59.316;18.092;2023-02-28T02:57:37;1.27;;;0.80;;
7426;SDS011;3755;59.316;18.092;2023-02-28T03:00:11;0.43;;;0.43;;
7426;SDS011;3755;59.316;18.092;2023-02-28T03:02:40;1.30;;;0.47;;
7426;SDS011;3755;59.316;18.092;2023-02-28T03:05:14;0.50;;;0.50;;
7426;SDS011;3755;59.316;18.092;2023-02-28T03:07:47;0.50;;;0.50;;
7426;SDS011;3755;59.316;18.092;2023-02-28T03:10:28;2.03;;;0.60;;
7426;SDS011;3755;59.316;18.092;2023-02-28T03:13:11;0.77;;;0.70;;
7426;SDS011;3755;59.316;18.092;2023-02-28T03:16:03;1.13;;;0.60;;
7426;SDS011;3755;59.316;18.092;2023-02-28T03:18:52;1.03;;;0.60;;
7426;SDS011;3755;59.316;18.092;2023-02-28T03:21:28;0.70;;;0.50;;
7426;SDS011;3755;59.316;18.092;2023-02-28T03:24:03;0.40;;;0.40;;
7426;SDS011;3755;59.316;18.092;2023-02-28T03:26:33;1.03;;;0.50;;
7426;SDS011;3755;59.316;18.092;2023-02-28T03:29:08;0.37;;;0.37;;
7426;SDS011;3755;59.316;18.092;2023-02-28T03:31:43;0.40;;;0.40;;
7426;SDS011;3755;59.316;18.092;2023-02-28T03:34:15;0.40;;;0.40;;
7426;SDS011;3755;59.316;18.092;2023-02-28T03:36:49;0.50;;;0.50;;
7426;SDS011;3755;59.316;18.092;2023-02-28T03:39:20;0.60;;;0.60;;
7426;SDS011;3755;59.316;18.092;2023-02-28T03:41:51;0.60;;;0.50;;
7426;SDS011;3755;59.316;18.092;2023-02-28T03:44:28;1.17;;;0.60;;
7426;SDS011;3755;59.316;18.092;2023-02-28T03:47:00;0.40;;;0.40;;
7426;SDS011;3755;59.316;18.092;2023-02-28T03:49:30;0.67;;;0.50;;
7426;SDS011;3755;59.316;18.092;2023-02-28T03:52:04;1.40;;;0.60;;
7426;SDS011;3755;59.316;18.092;2023-02-28T03:54:35;0.50;;;0.50;;
7426;SDS011;3755;59.316;18.092;2023-02-28T03:57:10;0.40;;;0.40;;
7426;SDS011;3755;59.316;18.092;2023-02-28T03:59:43;1.13;;;0.60;;
7426;SDS011;3755;59.316;18.092;2023-02-28T04:02:14;0.53;;;0.50;;
7426;SDS011;3755;59.316;18.092;2023-02-28T04:04:43;0.47;;;0.47;;
7426;SDS011;3755;59.316;18.092;2023-02-28T04:07:16;0.80;;;0.50;;
7426;SDS011;3755;59.316;18.092;2023-02-28T04:09:44;0.70;;;0.50;;
7426;SDS011;3755;59.316;18.092;2023-02-28T04:12:11;0.80;;;0.53;;
7426;SDS011;3755;59.316;18.092;2023-02-28T04:14:39;0.70;;;0.70;;
7426;SDS011;3755;59.316;18.092;2023-02-28T04:17:06;0.67;;;0.50;;
7426;SDS011;3755;59.316;18.092;2023-02-28T04:19:34;0.57;;;0.57;;
7426;SDS011;3755;59.316;18.092;2023-02-28T04:22:01;0.50;;;0.47;;
7426;SDS011;3755;59.316;18.092;2023-02-28T04:24:31;1.93;;;0.57;;
7426;SDS011;3755;59.316;18.092;2023-02-28T04:26:58;0.50;;;0.50;;
7426;SDS011;3755;59.316;18.092;2023-02-28T04:29:26;1.27;;;0.50;;
7426;SDS011;3755;59.316;18.092;2023-02-28T04:31:56;2.73;;;0.63;;
7426;SDS011;3755;59.316;18.092;2023-02-28T04:34:24;3.03;;;0.83;;
7426;SDS011;3755;59.316;18.092;2023-02-28T04:36:54;0.60;;;0.60;;
7426;SDS011;3755;59.316;18.092;2023-02-28T04:39:23;0.43;;;0.43;;
7426;SDS011;3755;59.316;18.092;2023-02-28T04:41:52;0.40;;;0.40;;
7426;SDS011;3755;59.316;18.092;2023-02-28T04:44:19;0.57;;;0.50;;
7426;SDS011;3755;59.316;18.092;2023-02-28T04:46:47;0.50;;;0.50;;
7426;SDS011;3755;59.316;18.092;2023-02-28T04:49:15;0.50;;;0.50;;
7426;SDS011;3755;59.316;18.092;2023-02-28T04:51:45;0.60;;;0.60;;
7426;SDS011;3755;59.316;18.092;2023-02-28T04:54:12;0.50;;;0.50;;
7426;SDS011;3755;59.316;18.092;2023-02-28T04:56:41;0.77;;;0.60;;
7426;SDS011;3755;59.316;18.092;2023-02-28T04:59:10;2.20;;;0.60;;
7426;SDS011;3755;59.316;18.092;2023-02-28T05:01:37;1.53;;;0.60;;
7426;SDS011;3755;59.316;18.092;2023-02-28T05:04:04;0.83;;;0.70;;
7426;SDS011;3755;59.316;18.092;2023-02-28T05:06:32;0.60;;;0.53;;
7426;SDS011;3755;59.316;18.092;2023-02-28T05:09:01;2.07;;;0.70;;
7426;SDS011;3755;59.316;18.092;2023-02-28T05:11:44;0.60;;;0.53;;
7426;SDS011;3755;59.316;18.092;2023-02-28T05:14:13;0.53;;;0.50;;
7426;SDS011;3755;59.316;18.092;2023-02-28T05:16:41;0.87;;;0.60;;
7426;SDS011;3755;59.316;18.092;2023-02-28T05:19:10;0.93;;;0.67;;
7426;SDS011;3755;59.316;18.092;2023-02-28T05:21:38;0.50;;;0.50;;
7426;SDS011;3755;59.316;18.092;2023-02-28T05:24:07;1.40;;;0.50;;
7426;SDS011;3755;59.316;18.092;2023-02-28T05:26:39;0.53;;;0.47;;
7426;SDS011;3755;59.316;18.092;2023-02-28T05:29:07;0.63;;;0.60;;
7426;SDS011;3755;59.316;18.092;2023-02-28T05:31:36;0.50;;;0.50;;
7426;SDS011;3755;59.316;18.092;2023-02-28T05:34:04;0.60;;;0.60;;
7426;SDS011;3755;59.316;18.092;2023-02-28T05:36:32;0.63;;;0.50;;
7426;SDS011;3755;59.316;18.092;2023-02-28T05:38:59;0.60;;;0.60;;
7426;SDS011;3755;59.316;18.092;2023-02-28T05:41:28;0.73;;;0.60;;
7426;SDS011;3755;59.316;18.092;2023-02-28T05:43:56;0.73;;;0.60;;
7426;SDS011;3755;59.316;18.092;2023-02-28T05:46:25;0.80;;;0.60;;
7426;SDS011;3755;59.316;18.092;2023-02-28T05:48:54;0.50;;;0.50;;
7426;SDS011;3755;59.316;18.092;2023-02-28T05:51:24;0.73;;;0.40;;
7426;SDS011;3755;59.316;18.092;2023-02-28T05:53:51;4.80;;;0.60;;
7426;SDS011;3755;59.316;18.092;2023-02-28T05:56:19;2.63;;;0.57;;
7426;SDS011;3755;59.316;18.092;2023-02-28T05:58:48;0.60;;;0.60;;
7426;SDS011;3755;59.316;18.092;2023-02-28T06:01:33;1.43;;;0.70;;
7426;SDS011;3755;59.316;18.092;2023-02-28T06:04:05;0.80;;;0.60;;
7426;SDS011;3755;59.316;18.092;2023-02-28T06:06:47;0.40;;;0.40;;
7426;SDS011;3755;59.316;18.092;2023-02-28T06:09:16;0.60;;;0.60;;
7426;SDS011;3755;59.316;18.092;2023-02-28T06:12:06;1.07;;;0.70;;
7426;SDS011;3755;59.316;18.092;2023-02-28T06:14:54;0.77;;;0.57;;
7426;SDS011;3755;59.316;18.092;2023-02-28T06:17:22;0.50;;;0.40;;
7426;SDS011;3755;59.316;18.092;2023-02-28T06:19:56;0.50;;;0.40;;
7426;SDS011;3755;59.316;18.092;2023-02-28T06:22:24;1.90;;;0.80;;
7426;SDS011;3755;59.316;18.092;2023-02-28T06:24:52;0.60;;;0.60;;
7426;SDS011;3755;59.316;18.092;2023-02-28T06:27:34;0.50;;;0.50;;
7426;SDS011;3755;59.316;18.092;2023-02-28T06:30:02;0.60;;;0.60;;
7426;SDS011;3755;59.316;18.092;2023-02-28T06:32:45;0.50;;;0.50;;
7426;SDS011;3755;59.316;18.092;2023-02-28T06:35:34;1.00;;;0.60;;
7426;SDS011;3755;59.316;18.092;2023-02-28T06:38:04;0.60;;;0.60;;
7426;SDS011;3755;59.316;18.092;2023-02-28T06:40:52;2.40;;;0.60;;
7426;SDS011;3755;59.316;18.092;2023-02-28T06:43:23;0.50;;;0.50;;
7426;SDS011;3755;59.316;18.092;2023-02-28T06:45:54;0.50;;;0.50;;
7426;SDS011;3755;59.316;18.092;2023-02-28T06:48:36;0.50;;;0.50;;
7426;SDS011;3755;59.316;18.092;2023-02-28T06:51:08;1.10;;;0.80;;
7426;SDS011;3755;59.316;18.092;2023-02-28T06:53:38;0.87;;;0.70;;
7426;SDS011;3755;59.316;18.092;2023-02-28T06:56:51;1.13;;;0.60;;
7426;SDS011;3755;59.316;18.092;2023-02-28T06:59:28;0.50;;;0.37;;
7426;SDS011;3755;59.316;18.092;2023-02-28T07:02:01;0.53;;;0.50;;
7426;SDS011;3755;59.316;18.092;2023-02-28T07:04:46;0.63;;;0.57;;
7426;SDS011;3755;59.316;18.092;2023-02-28T07:07:30;0.50;;;0.50;;
7426;SDS011;3755;59.316;18.092;2023-02-28T07:10:16;1.30;;;0.60;;
7426;SDS011;3755;59.316;18.092;2023-02-28T07:13:44;0.57;;;0.50;;
7426;SDS011;3755;59.316;18.092;2023-02-28T07:16:25;0.77;;;0.53;;
7426;SDS011;3755;59.316;18.092;2023-02-28T07:18:59;0.67;;;0.50;;
7426;SDS011;3755;59.316;18.092;2023-02-28T07:21:41;1.00;;;0.60;;
7426;SDS011;3755;59.316;18.092;2023-02-28T07:24:17;1.00;;;0.70;;
7426;SDS011;3755;59.316;18.092;2023-02-28T07:26:49;1.20;;;0.83;;
7426;SDS011;3755;59.316;18.092;2023-02-28T07:29:21;0.97;;;0.80;;
7426;SDS011;3755;59.316;18.092;2023-02-28T07:32:14;0.40;;;0.40;;
7426;SDS011;3755;59.316;18.092;2023-02-28T07:34:54;1.43;;;0.70;;
7426;SDS011;3755;59.316;18.092;2023-02-28T07:37:35;0.50;;;0.50;;
7426;SDS011;3755;59.316;18.092;2023-02-28T07:40:05;0.87;;;0.60;;
7426;SDS011;3755;59.316;18.092;2023-02-28T07:42:48;1.60;;;0.53;;
7426;SDS011;3755;59.316;18.092;2023-02-28T07:45:35;0.73;;;0.60;;
7426;SDS011;3755;59.316;18.092;2023-02-28T07:48:05;0.50;;;0.50;;
7426;SDS011;3755;59.316;18.092;2023-02-28T07:50:36;0.60;;;0.60;;
7426;SDS011;3755;59.316;18.092;2023-02-28T07:53:07;0.80;;;0.80;;
7426;SDS011;3755;59.316;18.092;2023-02-28T07:55:50;0.50;;;0.50;;
7426;SDS011;3755;59.316;18.092;2023-02-28T07:58:26;0.67;;;0.50;;
7426;SDS011;3755;59.316;18.092;2023-02-28T08:01:09;1.53;;;0.50;;
7426;SDS011;3755;59.316;18.092;2023-02-28T08:03:50;1.07;;;0.57;;
7426;SDS011;3755;59.316;18.092;2023-02-28T08:06:20;0.70;;;0.60;;
7426;SDS011;3755;59.316;18.092;2023-02-28T08:09:03;0.80;;;0.60;;
7426;SDS011;3755;59.316;18.092;2023-02-28T08:14:43;1.17;;;0.70;;
7426;SDS011;3755;59.316;18.092;2023-02-28T08:17:11;0.57;;;0.57;;
7426;SDS011;3755;59.316;18.092;2023-02-28T08:19:52;0.40;;;0.40;;
7426;SDS011;3755;59.316;18.092;2023-02-28T08:22:20;1.33;;;0.57;;
7426;SDS011;3755;59.316;18.092;2023-02-28T08:24:49;1.37;;;0.47;;
7426;SDS011;3755;59.316;18.092;2023-02-28T08:27:32;0.70;;;0.43;;
7426;SDS011;3755;59.316;18.092;2023-02-28T08:30:17;0.70;;;0.40;;
7426;SDS011;3755;59.316;18.092;2023-02-28T08:33:09;1.37;;;0.70;;
7426;SDS011;3755;59.316;18.092;2023-02-28T08:35:37;1.23;;;0.53;;
7426;SDS011;3755;59.316;18.092;2023-02-28T08:38:05;0.40;;;0.40;;
7426;SDS011;3755;59.316;18.092;2023-02-28T08:40:40;2.53;;;0.70;;
7426;SDS011;3755;59.316;18.092;2023-02-28T08:43:26;0.50;;;0.50;;
7426;SDS011;3755;59.316;18.092;2023-02-28T08:52:30;1.20;;;0.70;;
7426;SDS011;3755;59.316;18.092;2023-02-28T08:55:12;1.07;;;0.70;;
7426;SDS011;3755;59.316;18.092;2023-02-28T08:58:00;1.20;;;0.50;;
7426;SDS011;3755;59.316;18.092;2023-02-28T09:00:45;0.70;;;0.50;;
7426;SDS011;3755;59.316;18.092;2023-02-28T09:03:31;1.67;;;0.80;;
7426;SDS011;3755;59.316;18.092;2023-02-28T09:06:14;1.10;;;0.63;;
7426;SDS011;3755;59.316;18.092;2023-02-28T09:08:42;1.57;;;0.50;;
7426;SDS011;3755;59.316;18.092;2023-02-28T09:11:17;0.40;;;0.40;;
7426;SDS011;3755;59.316;18.092;2023-02-28T09:14:01;1.80;;;0.60;;
7426;SDS011;3755;59.316;18.092;2023-02-28T09:16:45;0.83;;;0.57;;
7426;SDS011;3755;59.316;18.092;2023-02-28T09:19:12;0.43;;;0.40;;
7426;SDS011;3755;59.316;18.092;2023-02-28T09:22:07;1.43;;;0.80;;
7426;SDS011;3755;59.316;18.092;2023-02-28T09:24:53;2.17;;;0.40;;
7426;SDS011;3755;59.316;18.092;2023-02-28T09:27:22;1.53;;;0.50;;
7426;SDS011;3755;59.316;18.092;2023-02-28T09:29:55;0.93;;;0.40;;
7426;SDS011;3755;59.316;18.092;2023-02-28T09:32:37;2.27;;;0.60;;
7426;SDS011;3755;59.316;18.092;2023-02-28T09:35:06;0.60;;;0.60;;
7426;SDS011;3755;59.316;18.092;2023-02-28T09:40:52;0.50;;;0.50;;
7426;SDS011;3755;59.316;18.092;2023-02-28T09:43:37;1.03;;;0.60;;
7426;SDS011;3755;59.316;18.092;2023-02-28T09:46:18;0.40;;;0.40;;
7426;SDS011;3755;59.316;18.092;2023-02-28T09:48:53;0.60;;;0.40;;
7426;SDS011;3755;59.316;18.092;2023-02-28T09:54:17;2.60;;;0.80;;
7426;SDS011;3755;59.316;18.092;2023-02-28T10:00:17;0.93;;;0.60;;
7426;SDS011;3755;59.316;18.092;2023-02-28T10:03:25;2.97;;;0.83;;
7426;SDS011;3755;59.316;18.092;2023-02-28T10:06:12;1.70;;;0.80;;
7426;SDS011;3755;59.316;18.092;2023-02-28T10:09:00;0.30;;;0.30;;
7426;SDS011;3755;59.316;18.092;2023-02-28T10:11:44;2.50;;;0.60;;
7426;SDS011;3755;59.316;18.092;2023-02-28T10:14:35;2.03;;;0.70;;
7426;SDS011;3755;59.316;18.092;2023-02-28T10:21:00;0.87;;;0.47;;
7426;SDS011;3755;59.316;18.092;2023-02-28T10:23:43;1.43;;;0.60;;
7426;SDS011;3755;59.316;18.092;2023-02-28T10:26:45;1.73;;;0.57;;
7426;SDS011;3755;59.316;18.092;2023-02-28T10:29:43;2.13;;;0.93;;
7426;SDS011;3755;59.316;18.092;2023-02-28T10:32:25;0.93;;;0.60;;
7426;SDS011;3755;59.316;18.092;2023-02-28T10:35:17;2.93;;;0.83;;
7426;SDS011;3755;59.316;18.092;2023-02-28T11:02:08;2.83;;;0.93;;
7426;SDS011;3755;59.316;18.092;2023-02-28T11:05:31;0.90;;;0.60;;
7426;SDS011;3755;59.316;18.092;2023-02-28T11:08:16;1.43;;;0.60;;
7426;SDS011;3755;59.316;18.092;2023-02-28T11:11:06;1.50;;;0.60;;
7426;SDS011;3755;59.316;18.092;2023-02-28T11:13:50;2.30;;;0.63;;
7426;SDS011;3755;59.316;18.092;2023-02-28T11:16:34;3.50;;;1.23;;
7426;SDS011;3755;59.316;18.092;2023-02-28T11:38:43;5.47;;;2.17;;
7426;SDS011;3755;59.316;18.092;2023-02-28T11:41:27;2.43;;;0.50;;
7426;SDS011;3755;59.316;18.092;2023-02-28T11:44:21;0.80;;;0.57;;
7426;SDS011;3755;59.316;18.092;2023-02-28T11:47:26;3.23;;;0.80;;
7426;SDS011;3755;59.316;18.092;2023-02-28T11:50:16;2.23;;;0.80;;
7426;SDS011;3755;59.316;18.092;2023-02-28T11:53:10;4.63;;;1.20;;
7426;SDS011;3755;59.316;18.092;2023-02-28T11:56:08;0.20;;;0.20;;
7426;SDS011;3755;59.316;18.092;2023-02-28T11:58:50;2.10;;;0.50;;
7426;SDS011;3755;59.316;18.092;2023-02-28T12:01:44;5.20;;;1.00;;
7426;SDS011;3755;59.316;18.092;2023-02-28T12:04:47;3.20;;;1.03;;
7426;SDS011;3755;59.316;18.092;2023-02-28T12:07:40;1.50;;;0.80;;
7426;SDS011;3755;59.316;18.092;2023-02-28T12:10:30;0.50;;;0.50;;
7426;SDS011;3755;59.316;18.092;2023-02-28T12:19:17;0.63;;;0.40;;
7426;SDS011;3755;59.316;18.092;2023-02-28T12:22:06;6.23;;;1.23;;
7426;SDS011;3755;59.316;18.092;2023-02-28T12:28:01;2.27;;;0.83;;
7426;SDS011;3755;59.316;18.092;2023-02-28T12:33:56;1.97;;;0.50;;
7426;SDS011;3755;59.316;18.092;2023-02-28T12:36:44;4.13;;;1.13;;
7426;SDS011;3755;59.316;18.092;2023-02-28T12:39:29;1.33;;;0.70;;
7426;SDS011;3755;59.316;18.092;2023-02-28T12:42:16;0.20;;;0.20;;
7426;SDS011;3755;59.316;18.092;2023-02-28T12:45:04;6.03;;;0.80;;
7426;SDS011;3755;59.316;18.092;2023-02-28T12:47:54;3.13;;;1.23;;
7426;SDS011;3755;59.316;18.092;2023-02-28T12:50:32;2.40;;;0.60;;
7426;SDS011;3755;59.316;18.092;2023-02-28T12:53:17;0.80;;;0.50;;
7426;SDS011;3755;59.316;18.092;2023-02-28T12:56:34;1.93;;;0.60;;
7426;SDS011;3755;59.316;18.092;2023-02-28T12:59:14;1.13;;;0.50;;
7426;SDS011;3755;59.316;18.092;2023-02-28T13:11:58;1.07;;;0.60;;
7426;SDS011;3755;59.316;18.092;2023-02-28T13:14:39;4.87;;;1.03;;
7426;SDS011;3755;59.316;18.092;2023-02-28T13:17:21;0.97;;;0.70;;
7426;SDS011;3755;59.316;18.092;2023-02-28T13:20:14;2.10;;;0.97;;
7426;SDS011;3755;59.316;18.092;2023-02-28T13:22:45;1.47;;;0.70;;
7426;SDS011;3755;59.316;18.092;2023-02-28T13:34:39;2.57;;;0.53;;
7426;SDS011;3755;59.316;18.092;2023-02-28T13:37:35;0.70;;;0.60;;
7426;SDS011;3755;59.316;18.092;2023-02-28T13:46:29;4.80;;;0.67;;
7426;SDS011;3755;59.316;18.092;2023-02-28T13:49:01;2.00;;;0.53;;
7426;SDS011;3755;59.316;18.092;2023-02-28T13:55:02;2.43;;;0.50;;
7426;SDS011;3755;59.316;18.092;2023-02-28T13:58:00;6.10;;;0.50;;
7426;SDS011;3755;59.316;18.092;2023-02-28T14:00:43;2.13;;;0.43;;
7426;SDS011;3755;59.316;18.092;2023-02-28T14:03:37;4.93;;;0.90;;
7426;SDS011;3755;59.316;18.092;2023-02-28T14:06:40;4.13;;;0.80;;
7426;SDS011;3755;59.316;18.092;2023-02-28T14:09:33;1.17;;;0.67;;
7426;SDS011;3755;59.316;18.092;2023-02-28T14:12:57;6.23;;;0.93;;
7426;SDS011;3755;59.316;18.092;2023-02-28T14:15:45;1.43;;;0.50;;
7426;SDS011;3755;59.316;18.092;2023-02-28T14:18:35;0.73;;;0.47;;
7426;SDS011;3755;59.316;18.092;2023-02-28T14:21:20;3.70;;;0.80;;
7426;SDS011;3755;59.316;18.092;2023-02-28T14:24:09;3.90;;;0.90;;
7426;SDS011;3755;59.316;18.092;2023-02-28T14:33:48;4.80;;;0.80;;
7426;SDS011;3755;59.316;18.092;2023-02-28T14:36:31;2.10;;;0.80;;
7426;SDS011;3755;59.316;18.092;2023-02-28T14:39:11;4.67;;;1.40;;
7426;SDS011;3755;59.316;18.092;2023-02-28T14:41:41;3.07;;;0.90;;
7426;SDS011;3755;59.316;18.092;2023-02-28T14:44:21;4.27;;;0.90;;
7426;SDS011;3755;59.316;18.092;2023-02-28T14:46:55;2.30;;;0.95;;
7426;SDS011;3755;59.316;18.092;2023-02-28T14:49:42;4.03;;;1.23;;
7426;SDS011;3755;59.316;18.092;2023-02-28T14:52:12;3.53;;;1.07;;
7426;SDS011;3755;59.316;18.092;2023-02-28T14:54:59;3.77;;;1.20;;
7426;SDS011;3755;59.316;18.092;2023-02-28T14:57:30;1.87;;;1.00;;
7426;SDS011;3755;59.316;18.092;2023-02-28T14:59:59;4.10;;;1.00;;
7426;SDS011;3755;59.316;18.092;2023-02-28T15:02:39;4.53;;;1.17;;
7426;SDS011;3755;59.316;18.092;2023-02-28T15:05:18;3.58;;;1.20;;
7426;SDS011;3755;59.316;18.092;2023-02-28T15:08:00;4.50;;;1.20;;
7426;SDS011;3755;59.316;18.092;2023-02-28T15:10:50;4.53;;;1.30;;
7426;SDS011;3755;59.316;18.092;2023-02-28T15:13:20;4.43;;;0.90;;
7426;SDS011;3755;59.316;18.092;2023-02-28T15:15:50;2.73;;;1.10;;
7426;SDS011;3755;59.316;18.092;2023-02-28T15:18:25;4.23;;;1.03;;
7426;SDS011;3755;59.316;18.092;2023-02-28T15:20:59;2.77;;;1.50;;
7426;SDS011;3755;59.316;18.092;2023-02-28T15:23:32;3.37;;;1.07;;
7426;SDS011;3755;59.316;18.092;2023-02-28T15:26:13;7.87;;;1.27;;
7426;SDS011;3755;59.316;18.092;2023-02-28T15:28:43;2.88;;;0.90;;
7426;SDS011;3755;59.316;18.092;2023-02-28T15:31:21;6.37;;;1.03;;
7426;SDS011;3755;59.316;18.092;2023-02-28T15:33:54;8.43;;;1.30;;
7426;SDS011;3755;59.316;18.092;2023-02-28T15:36:25;2.23;;;1.30;;
7426;SDS011;3755;59.316;18.092;2023-02-28T15:38:53;9.13;;;1.33;;
7426;SDS011;3755;59.316;18.092;2023-02-28T15:41:22;5.20;;;1.50;;
7426;SDS011;3755;59.316;18.092;2023-02-28T15:46:41;5.47;;;1.80;;
7426;SDS011;3755;59.316;18.092;2023-02-28T15:49:13;5.28;;;1.63;;
7426;SDS011;3755;59.316;18.092;2023-02-28T15:51:46;15.43;;;1.73;;
7426;SDS011;3755;59.316;18.092;2023-02-28T15:54:20;7.30;;;1.87;;
7426;SDS011;3755;59.316;18.092;2023-02-28T15:56:53;3.50;;;1.00;;
7426;SDS011;3755;59.316;18.092;2023-02-28T15:59:24;4.33;;;1.23;;
7426;SDS011;3755;59.316;18.092;2023-02-28T16:02:21;2.50;;;1.07;;
7426;SDS011;3755;59.316;18.092;2023-02-28T16:05:13;1.40;;;0.90;;
7426;SDS011;3755;59.316;18.092;2023-02-28T16:07:53;4.53;;;1.43;;
7426;SDS011;3755;59.316;18.092;2023-02-28T16:10:22;2.10;;;1.23;;
7426;SDS011;3755;59.316;18.092;2023-02-28T16:12:53;3.13;;;1.37;;
7426;SDS011;3755;59.316;18.092;2023-02-28T16:15:24;4.17;;;1.33;;
7426;SDS011;3755;59.316;18.092;2023-02-28T16:17:54;5.80;;;1.43;;
7426;SDS011;3755;59.316;18.092;2023-02-28T16:20:29;13.93;;;1.97;;
7426;SDS011;3755;59.316;18.092;2023-02-28T16:23:12;2.47;;;1.17;;
7426;SDS011;3755;59.316;18.092;2023-02-28T16:25:42;2.70;;;1.50;;
7426;SDS011;3755;59.316;18.092;2023-02-28T16:28:12;2.27;;;1.00;;
7426;SDS011;3755;59.316;18.092;2023-02-28T16:30:50;1.70;;;1.20;;
7426;SDS011;3755;59.316;18.092;2023-02-28T16:33:32;5.90;;;1.50;;
7426;SDS011;3755;59.316;18.092;2023-02-28T16:36:16;2.73;;;1.30;;
7426;SDS011;3755;59.316;18.092;2023-02-28T16:38:53;2.50;;;1.23;;
7426;SDS011;3755;59.316;18.092;2023-02-28T16:41:35;3.77;;;1.00;;
7426;SDS011;3755;59.316;18.092;2023-02-28T16:44:05;4.00;;;1.23;;
7426;SDS011;3755;59.316;18.092;2023-02-28T16:46:39;5.17;;;2.20;;
7426;SDS011;3755;59.316;18.092;2023-02-28T16:49:23;4.23;;;2.23;;
7426;SDS011;3755;59.316;18.092;2023-02-28T16:52:07;6.73;;;1.80;;
7426;SDS011;3755;59.316;18.092;2023-02-28T16:54:50;9.40;;;1.97;;
7426;SDS011;3755;59.316;18.092;2023-02-28T16:57:20;1.60;;;1.10;;
7426;SDS011;3755;59.316;18.092;2023-02-28T17:00:03;4.53;;;1.83;;
7426;SDS011;3755;59.316;18.092;2023-02-28T17:02:47;2.90;;;1.40;;
7426;SDS011;3755;59.316;18.092;2023-02-28T17:05:33;1.23;;;0.97;;
7426;SDS011;3755;59.316;18.092;2023-02-28T17:08:08;4.77;;;2.10;;
7426;SDS011;3755;59.316;18.092;2023-02-28T17:10:52;1.67;;;1.10;;
7426;SDS011;3755;59.316;18.092;2023-02-28T17:13:19;3.70;;;1.70;;
7426;SDS011;3755;59.316;18.092;2023-02-28T17:16:01;2.30;;;1.30;;
7426;SDS011;3755;59.316;18.092;2023-02-28T17:18:42;2.23;;;1.30;;
7426;SDS011;3755;59.316;18.092;2023-02-28T17:21:12;4.13;;;1.43;;
7426;SDS011;3755;59.316;18.092;2023-02-28T17:23:56;4.27;;;2.00;;
7426;SDS011;3755;59.316;18.092;2023-02-28T17:26:41;1.40;;;1.10;;
7426;SDS011;3755;59.316;18.092;2023-02-28T17:29:24;4.60;;;1.53;;
7426;SDS011;3755;59.316;18.092;2023-02-28T17:32:06;3.60;;;1.80;;
7426;SDS011;3755;59.316;18.092;2023-02-28T17:34:33;4.97;;;1.93;;
7426;SDS011;3755;59.316;18.092;2023-02-28T17:37:02;1.53;;;1.17;;
7426;SDS011;3755;59.316;18.092;2023-02-28T17:39:41;3.13;;;1.60;;
7426;SDS011;3755;59.316;18.092;2023-02-28T17:42:22;6.00;;;1.53;;
7426;SDS011;3755;59.316;18.092;2023-02-28T17:44:51;3.53;;;2.20;;
7426;SDS011;3755;59.316;18.092;2023-02-28T17:47:23;3.30;;;1.60;;
7426;SDS011;3755;59.316;18.092;2023-02-28T17:49:52;6.63;;;2.03;;
7426;SDS011;3755;59.316;18.092;2023-02-28T17:52:35;3.80;;;1.87;;
7426;SDS011;3755;59.316;18.092;2023-02-28T17:58:20;4.50;;;2.37;;
7426;SDS011;3755;59.316;18.092;2023-02-28T18:01:42;15.30;;;4.03;;
7426;SDS011;3755;59.316;18.092;2023-02-28T18:04:24;5.13;;;2.50;;
7426;SDS011;3755;59.316;18.092;2023-02-28T18:07:07;3.37;;;1.90;;
7426;SDS011;3755;59.316;18.092;2023-02-28T18:09:41;2.27;;;1.87;;